sensor_id;sensor_type;location;lat;lon;timestamp;P1;durP1;ratioP1;P2;durP2;ratioP2
39016;SDS011;24784;45.582;5.276;2023-11-19T00:00:43;17.33;;;11.48;;
39016;SDS011;24784;45.582;5.276;2023-11-19T00:03:08;22.35;;;11.77;;
39016;SDS011;24784;45.582;5.276;2023-11-19T00:05:38;20.50;;;10.88;;
39016;SDS011;24784;45.582;5.276;2023-11-19T00:08:04;17.80;;;9.88;;
39016;SDS011;24784;45.582;5.276;2023-11-19T00:10:30;15.50;;;10.40;;
39016;SDS011;24784;45.582;5.276;2023-11-19T00:12:56;17.20;;;9.98;;
39016;SDS011;24784;45.582;5.276;2023-11-19T00:15:22;13.48;;;8.68;;
39016;SDS011;24784;45.582;5.276;2023-11-19T00:17:49;13.88;;;9.38;;
39016;SDS011;24784;45.582;5.276;2023-11-19T00:20:15;19.75;;;10.15;;
39016;SDS011;24784;45.582;5.276;2023-11-19T00:22:45;18.77;;;9.45;;
39016;SDS011;24784;45.582;5.276;2023-11-19T00:25:16;15.98;;;9.32;;
39016;SDS011;24784;45.582;5.276;2023-11-19T00:27:45;14.07;;;8.75;;
39016;SDS011;24784;45.582;5.276;2023-11-19T00:30:10;14.35;;;8.98;;
39016;SDS011;24784;45.582;5.276;2023-11-19T00:32:36;14.20;;;8.57;;
39016;SDS011;24784;45.582;5.276;2023-11-19T00:35:04;18.05;;;9.48;;
39016;SDS011;24784;45.582;5.276;2023-11-19T00:37:30;14.52;;;9.15;;
39016;SDS011;24784;45.582;5.276;2023-11-19T00:39:56;14.07;;;8.70;;
39016;SDS011;24784;45.582;5.276;2023-11-19T00:42:23;19.48;;;8.85;;
39016;SDS011;24784;45.582;5.276;2023-11-19T00:44:52;15.73;;;9.82;;
39016;SDS011;24784;45.582;5.276;2023-11-19T00:47:18;15.90;;;8.95;;
39016;SDS011;24784;45.582;5.276;2023-11-19T00:49:46;16.33;;;9.15;;
39016;SDS011;24784;45.582;5.276;2023-11-19T00:52:14;13.20;;;8.38;;
39016;SDS011;24784;45.582;5.276;2023-11-19T00:54:40;14.00;;;8.70;;
39016;SDS011;24784;45.582;5.276;2023-11-19T00:57:06;17.23;;;9.10;;
39016;SDS011;24784;45.582;5.276;2023-11-19T00:59:31;17.52;;;9.10;;
39016;SDS011;24784;45.582;5.276;2023-11-19T01:01:57;15.88;;;8.55;;
39016;SDS011;24784;45.582;5.276;2023-11-19T01:04:27;14.95;;;7.85;;
39016;SDS011;24784;45.582;5.276;2023-11-19T01:06:54;16.23;;;8.60;;
39016;SDS011;24784;45.582;5.276;2023-11-19T01:09:19;12.35;;;8.45;;
39016;SDS011;24784;45.582;5.276;2023-11-19T01:11:45;13.10;;;7.80;;
39016;SDS011;24784;45.582;5.276;2023-11-19T01:14:10;16.08;;;8.57;;
39016;SDS011;24784;45.582;5.276;2023-11-19T01:16:36;14.70;;;9.00;;
39016;SDS011;24784;45.582;5.276;2023-11-19T01:19:02;15.40;;;8.00;;
39016;SDS011;24784;45.582;5.276;2023-11-19T01:21:29;15.45;;;8.38;;
39016;SDS011;24784;45.582;5.276;2023-11-19T01:23:56;15.85;;;8.57;;
39016;SDS011;24784;45.582;5.276;2023-11-19T01:26:23;14.18;;;7.97;;
39016;SDS011;24784;45.582;5.276;2023-11-19T01:28:49;14.23;;;8.20;;
39016;SDS011;24784;45.582;5.276;2023-11-19T01:31:17;12.75;;;8.25;;
39016;SDS011;24784;45.582;5.276;2023-11-19T01:33:43;14.18;;;8.25;;
39016;SDS011;24784;45.582;5.276;2023-11-19T01:36:08;14.15;;;7.90;;
39016;SDS011;24784;45.582;5.276;2023-11-19T01:38:37;14.30;;;8.48;;
39016;SDS011;24784;45.582;5.276;2023-11-19T01:41:03;13.35;;;7.78;;
39016;SDS011;24784;45.582;5.276;2023-11-19T01:43:35;12.73;;;8.07;;
39016;SDS011;24784;45.582;5.276;2023-11-19T01:46:03;11.40;;;7.60;;
39016;SDS011;24784;45.582;5.276;2023-11-19T01:48:31;13.60;;;7.55;;
39016;SDS011;24784;45.582;5.276;2023-11-19T01:50:59;12.68;;;7.43;;
39016;SDS011;24784;45.582;5.276;2023-11-19T01:53:26;13.93;;;7.60;;
39016;SDS011;24784;45.582;5.276;2023-11-19T01:55:54;11.48;;;7.43;;
39016;SDS011;24784;45.582;5.276;2023-11-19T01:58:20;15.20;;;8.05;;
39016;SDS011;24784;45.582;5.276;2023-11-19T02:00:47;12.82;;;7.38;;
39016;SDS011;24784;45.582;5.276;2023-11-19T02:03:14;12.18;;;7.28;;
39016;SDS011;24784;45.582;5.276;2023-11-19T02:05:39;15.52;;;7.45;;
39016;SDS011;24784;45.582;5.276;2023-11-19T02:08:05;14.00;;;7.25;;
39016;SDS011;24784;45.582;5.276;2023-11-19T02:10:31;13.02;;;7.20;;
39016;SDS011;24784;45.582;5.276;2023-11-19T02:12:57;13.27;;;7.82;;
39016;SDS011;24784;45.582;5.276;2023-11-19T02:15:23;11.35;;;7.25;;
39016;SDS011;24784;45.582;5.276;2023-11-19T02:17:49;12.02;;;7.13;;
39016;SDS011;24784;45.582;5.276;2023-11-19T02:20:16;11.70;;;6.97;;
39016;SDS011;24784;45.582;5.276;2023-11-19T02:22:44;10.48;;;6.82;;
39016;SDS011;24784;45.582;5.276;2023-11-19T02:25:25;11.30;;;6.82;;
39016;SDS011;24784;45.582;5.276;2023-11-19T02:28:01;9.63;;;6.50;;
39016;SDS011;24784;45.582;5.276;2023-11-19T02:30:28;14.13;;;6.85;;
39016;SDS011;24784;45.582;5.276;2023-11-19T02:32:54;13.43;;;7.20;;
39016;SDS011;24784;45.582;5.276;2023-11-19T02:35:22;13.02;;;6.75;;
39016;SDS011;24784;45.582;5.276;2023-11-19T02:37:48;10.57;;;6.88;;
39016;SDS011;24784;45.582;5.276;2023-11-19T02:40:14;14.57;;;7.05;;
39016;SDS011;24784;45.582;5.276;2023-11-19T02:42:40;9.73;;;6.28;;
39016;SDS011;24784;45.582;5.276;2023-11-19T02:45:06;11.73;;;6.72;;
39016;SDS011;24784;45.582;5.276;2023-11-19T02:47:33;10.50;;;6.28;;
39016;SDS011;24784;45.582;5.276;2023-11-19T02:49:59;10.65;;;6.25;;
39016;SDS011;24784;45.582;5.276;2023-11-19T02:52:25;13.38;;;5.75;;
39016;SDS011;24784;45.582;5.276;2023-11-19T02:54:50;10.30;;;5.88;;
39016;SDS011;24784;45.582;5.276;2023-11-19T02:57:17;11.77;;;6.57;;
39016;SDS011;24784;45.582;5.276;2023-11-19T02:59:46;11.32;;;5.47;;
39016;SDS011;24784;45.582;5.276;2023-11-19T03:02:11;8.38;;;5.43;;
39016;SDS011;24784;45.582;5.276;2023-11-19T03:04:37;9.13;;;5.57;;
39016;SDS011;24784;45.582;5.276;2023-11-19T03:07:04;9.73;;;6.10;;
39016;SDS011;24784;45.582;5.276;2023-11-19T03:09:32;11.20;;;6.75;;
39016;SDS011;24784;45.582;5.276;2023-11-19T03:11:58;10.55;;;6.13;;
39016;SDS011;24784;45.582;5.276;2023-11-19T03:14:24;14.25;;;6.72;;
39016;SDS011;24784;45.582;5.276;2023-11-19T03:16:49;12.77;;;7.03;;
39016;SDS011;24784;45.582;5.276;2023-11-19T03:19:16;10.65;;;6.28;;
39016;SDS011;24784;45.582;5.276;2023-11-19T03:21:41;13.63;;;6.78;;
39016;SDS011;24784;45.582;5.276;2023-11-19T03:24:07;13.60;;;7.00;;
39016;SDS011;24784;45.582;5.276;2023-11-19T03:26:33;13.30;;;7.00;;
39016;SDS011;24784;45.582;5.276;2023-11-19T03:28:59;10.93;;;6.28;;
39016;SDS011;24784;45.582;5.276;2023-11-19T03:31:25;12.55;;;7.03;;
39016;SDS011;24784;45.582;5.276;2023-11-19T03:33:51;19.08;;;8.35;;
39016;SDS011;24784;45.582;5.276;2023-11-19T03:36:16;11.60;;;6.50;;
39016;SDS011;24784;45.582;5.276;2023-11-19T03:38:42;11.25;;;5.80;;
39016;SDS011;24784;45.582;5.276;2023-11-19T03:41:11;12.43;;;6.07;;
39016;SDS011;24784;45.582;5.276;2023-11-19T03:43:37;13.48;;;6.00;;
39016;SDS011;24784;45.582;5.276;2023-11-19T03:46:04;11.82;;;5.68;;
39016;SDS011;24784;45.582;5.276;2023-11-19T03:48:30;20.27;;;6.40;;
39016;SDS011;24784;45.582;5.276;2023-11-19T03:50:56;15.75;;;6.60;;
39016;SDS011;24784;45.582;5.276;2023-11-19T03:53:22;10.13;;;6.30;;
39016;SDS011;24784;45.582;5.276;2023-11-19T03:55:49;12.80;;;6.10;;
39016;SDS011;24784;45.582;5.276;2023-11-19T03:58:15;12.63;;;6.00;;
39016;SDS011;24784;45.582;5.276;2023-11-19T04:00:40;10.00;;;5.72;;
39016;SDS011;24784;45.582;5.276;2023-11-19T04:03:06;8.73;;;5.28;;
39016;SDS011;24784;45.582;5.276;2023-11-19T04:05:31;10.25;;;5.43;;
39016;SDS011;24784;45.582;5.276;2023-11-19T04:07:57;10.82;;;5.72;;
39016;SDS011;24784;45.582;5.276;2023-11-19T04:10:23;9.95;;;5.35;;
39016;SDS011;24784;45.582;5.276;2023-11-19T04:12:48;9.65;;;6.05;;
39016;SDS011;24784;45.582;5.276;2023-11-19T04:15:14;8.57;;;5.45;;
39016;SDS011;24784;45.582;5.276;2023-11-19T04:17:40;9.57;;;5.82;;
39016;SDS011;24784;45.582;5.276;2023-11-19T04:20:06;9.98;;;6.10;;
39016;SDS011;24784;45.582;5.276;2023-11-19T04:22:35;12.27;;;6.15;;
39016;SDS011;24784;45.582;5.276;2023-11-19T04:25:01;10.23;;;6.10;;
39016;SDS011;24784;45.582;5.276;2023-11-19T04:27:27;11.10;;;6.95;;
39016;SDS011;24784;45.582;5.276;2023-11-19T04:29:52;11.82;;;7.28;;
39016;SDS011;24784;45.582;5.276;2023-11-19T04:32:18;11.30;;;7.15;;
39016;SDS011;24784;45.582;5.276;2023-11-19T04:34:44;12.25;;;7.13;;
39016;SDS011;24784;45.582;5.276;2023-11-19T04:37:09;13.63;;;6.80;;
39016;SDS011;24784;45.582;5.276;2023-11-19T04:39:35;10.35;;;6.55;;
39016;SDS011;24784;45.582;5.276;2023-11-19T04:42:02;15.13;;;7.82;;
39016;SDS011;24784;45.582;5.276;2023-11-19T04:44:29;13.70;;;7.20;;
39016;SDS011;24784;45.582;5.276;2023-11-19T04:46:55;10.25;;;6.88;;
39016;SDS011;24784;45.582;5.276;2023-11-19T04:49:21;15.52;;;8.10;;
39016;SDS011;24784;45.582;5.276;2023-11-19T04:51:46;11.10;;;6.88;;
39016;SDS011;24784;45.582;5.276;2023-11-19T04:54:12;12.85;;;7.88;;
39016;SDS011;24784;45.582;5.276;2023-11-19T04:56:38;10.82;;;7.10;;
39016;SDS011;24784;45.582;5.276;2023-11-19T04:59:04;10.82;;;6.95;;
39016;SDS011;24784;45.582;5.276;2023-11-19T05:01:31;12.65;;;7.50;;
39016;SDS011;24784;45.582;5.276;2023-11-19T05:04:00;12.25;;;7.38;;
39016;SDS011;24784;45.582;5.276;2023-11-19T05:06:29;11.05;;;7.10;;
39016;SDS011;24784;45.582;5.276;2023-11-19T05:08:56;12.05;;;8.27;;
39016;SDS011;24784;45.582;5.276;2023-11-19T05:11:23;11.48;;;6.57;;
39016;SDS011;24784;45.582;5.276;2023-11-19T05:13:49;11.25;;;6.53;;
39016;SDS011;24784;45.582;5.276;2023-11-19T05:16:15;14.45;;;6.97;;
39016;SDS011;24784;45.582;5.276;2023-11-19T05:18:41;11.07;;;7.43;;
39016;SDS011;24784;45.582;5.276;2023-11-19T05:21:07;13.43;;;7.25;;
39016;SDS011;24784;45.582;5.276;2023-11-19T05:23:33;11.45;;;6.47;;
39016;SDS011;24784;45.582;5.276;2023-11-19T05:25:59;11.63;;;6.97;;
39016;SDS011;24784;45.582;5.276;2023-11-19T05:28:25;11.50;;;7.32;;
39016;SDS011;24784;45.582;5.276;2023-11-19T05:30:51;11.88;;;6.88;;
39016;SDS011;24784;45.582;5.276;2023-11-19T05:33:17;12.55;;;6.70;;
39016;SDS011;24784;45.582;5.276;2023-11-19T05:35:42;11.68;;;6.97;;
39016;SDS011;24784;45.582;5.276;2023-11-19T05:38:08;10.23;;;6.78;;
39016;SDS011;24784;45.582;5.276;2023-11-19T05:40:34;13.93;;;6.90;;
39016;SDS011;24784;45.582;5.276;2023-11-19T05:43:00;10.18;;;6.88;;
39016;SDS011;24784;45.582;5.276;2023-11-19T05:45:26;12.13;;;6.63;;
39016;SDS011;24784;45.582;5.276;2023-11-19T05:47:52;9.15;;;6.38;;
39016;SDS011;24784;45.582;5.276;2023-11-19T05:50:17;14.45;;;6.82;;
39016;SDS011;24784;45.582;5.276;2023-11-19T05:52:43;10.38;;;6.38;;
39016;SDS011;24784;45.582;5.276;2023-11-19T05:55:09;12.48;;;6.68;;
39016;SDS011;24784;45.582;5.276;2023-11-19T05:57:38;12.80;;;7.15;;
39016;SDS011;24784;45.582;5.276;2023-11-19T06:00:05;9.95;;;6.38;;
39016;SDS011;24784;45.582;5.276;2023-11-19T06:02:34;11.63;;;5.90;;
39016;SDS011;24784;45.582;5.276;2023-11-19T06:05:02;11.05;;;6.57;;
39016;SDS011;24784;45.582;5.276;2023-11-19T06:07:30;9.15;;;6.45;;
39016;SDS011;24784;45.582;5.276;2023-11-19T06:09:56;9.75;;;6.00;;
39016;SDS011;24784;45.582;5.276;2023-11-19T06:12:21;10.75;;;5.75;;
39016;SDS011;24784;45.582;5.276;2023-11-19T06:14:47;9.68;;;6.28;;
39016;SDS011;24784;45.582;5.276;2023-11-19T06:17:13;11.00;;;6.32;;
39016;SDS011;24784;45.582;5.276;2023-11-19T06:19:38;8.80;;;5.88;;
39016;SDS011;24784;45.582;5.276;2023-11-19T06:22:04;13.05;;;6.20;;
39016;SDS011;24784;45.582;5.276;2023-11-19T06:24:29;10.05;;;6.35;;
39016;SDS011;24784;45.582;5.276;2023-11-19T06:26:55;9.45;;;6.68;;
39016;SDS011;24784;45.582;5.276;2023-11-19T06:29:21;13.35;;;6.13;;
39016;SDS011;24784;45.582;5.276;2023-11-19T06:31:46;9.00;;;6.32;;
39016;SDS011;24784;45.582;5.276;2023-11-19T06:34:15;12.35;;;6.82;;
39016;SDS011;24784;45.582;5.276;2023-11-19T06:36:41;11.27;;;6.25;;
39016;SDS011;24784;45.582;5.276;2023-11-19T06:39:08;11.45;;;6.00;;
39016;SDS011;24784;45.582;5.276;2023-11-19T06:41:34;12.93;;;6.10;;
39016;SDS011;24784;45.582;5.276;2023-11-19T06:43:59;11.30;;;6.60;;
39016;SDS011;24784;45.582;5.276;2023-11-19T06:46:25;9.23;;;6.20;;
39016;SDS011;24784;45.582;5.276;2023-11-19T06:48:51;9.38;;;6.15;;
39016;SDS011;24784;45.582;5.276;2023-11-19T06:51:16;9.27;;;6.10;;
39016;SDS011;24784;45.582;5.276;2023-11-19T06:53:42;9.48;;;6.05;;
39016;SDS011;24784;45.582;5.276;2023-11-19T06:56:22;10.52;;;6.68;;
39016;SDS011;24784;45.582;5.276;2023-11-19T06:58:49;9.95;;;6.82;;
39016;SDS011;24784;45.582;5.276;2023-11-19T07:01:15;15.60;;;6.80;;
39016;SDS011;24784;45.582;5.276;2023-11-19T07:03:41;9.75;;;5.95;;
39016;SDS011;24784;45.582;5.276;2023-11-19T07:06:07;11.15;;;6.30;;
39016;SDS011;24784;45.582;5.276;2023-11-19T07:08:33;12.70;;;6.70;;
39016;SDS011;24784;45.582;5.276;2023-11-19T07:10:59;15.75;;;6.15;;
39016;SDS011;24784;45.582;5.276;2023-11-19T07:13:25;9.00;;;5.85;;
39016;SDS011;24784;45.582;5.276;2023-11-19T07:15:53;11.35;;;5.68;;
39016;SDS011;24784;45.582;5.276;2023-11-19T07:18:20;7.15;;;5.20;;
39016;SDS011;24784;45.582;5.276;2023-11-19T07:20:47;11.63;;;5.55;;
39016;SDS011;24784;45.582;5.276;2023-11-19T07:23:13;8.52;;;5.60;;
39016;SDS011;24784;45.582;5.276;2023-11-19T07:25:41;11.85;;;5.18;;
39016;SDS011;24784;45.582;5.276;2023-11-19T07:28:08;7.53;;;5.15;;
39016;SDS011;24784;45.582;5.276;2023-11-19T07:30:35;14.73;;;5.72;;
39016;SDS011;24784;45.582;5.276;2023-11-19T07:33:00;9.98;;;5.10;;
39016;SDS011;24784;45.582;5.276;2023-11-19T07:35:28;8.85;;;6.28;;
39016;SDS011;24784;45.582;5.276;2023-11-19T07:37:55;10.75;;;6.07;;
39016;SDS011;24784;45.582;5.276;2023-11-19T07:40:22;9.55;;;6.13;;
39016;SDS011;24784;45.582;5.276;2023-11-19T07:42:48;9.75;;;6.18;;
39016;SDS011;24784;45.582;5.276;2023-11-19T07:45:14;13.52;;;6.32;;
39016;SDS011;24784;45.582;5.276;2023-11-19T07:47:39;11.88;;;5.82;;
39016;SDS011;24784;45.582;5.276;2023-11-19T07:50:05;9.25;;;5.53;;
39016;SDS011;24784;45.582;5.276;2023-11-19T07:52:31;7.63;;;5.25;;
39016;SDS011;24784;45.582;5.276;2023-11-19T07:54:56;8.18;;;5.05;;
39016;SDS011;24784;45.582;5.276;2023-11-19T07:57:22;7.80;;;4.25;;
39016;SDS011;24784;45.582;5.276;2023-11-19T07:59:49;7.75;;;5.00;;
39016;SDS011;24784;45.582;5.276;2023-11-19T08:02:15;7.10;;;4.65;;
39016;SDS011;24784;45.582;5.276;2023-11-19T08:04:40;8.50;;;4.55;;
39016;SDS011;24784;45.582;5.276;2023-11-19T08:07:11;5.30;;;3.90;;
39016;SDS011;24784;45.582;5.276;2023-11-19T08:09:36;6.00;;;3.90;;
39016;SDS011;24784;45.582;5.276;2023-11-19T08:12:02;6.97;;;4.60;;
39016;SDS011;24784;45.582;5.276;2023-11-19T08:14:29;12.35;;;5.10;;
39016;SDS011;24784;45.582;5.276;2023-11-19T08:16:54;10.43;;;5.18;;
39016;SDS011;24784;45.582;5.276;2023-11-19T08:19:20;8.13;;;4.72;;
39016;SDS011;24784;45.582;5.276;2023-11-19T08:21:45;10.73;;;4.80;;
39016;SDS011;24784;45.582;5.276;2023-11-19T08:24:11;6.68;;;4.75;;
39016;SDS011;24784;45.582;5.276;2023-11-19T08:26:37;9.00;;;5.50;;
39016;SDS011;24784;45.582;5.276;2023-11-19T08:29:02;14.07;;;7.45;;
39016;SDS011;24784;45.582;5.276;2023-11-19T08:31:28;12.75;;;7.22;;
39016;SDS011;24784;45.582;5.276;2023-11-19T08:33:54;14.85;;;8.25;;
39016;SDS011;24784;45.582;5.276;2023-11-19T08:36:19;15.10;;;7.75;;
39016;SDS011;24784;45.582;5.276;2023-11-19T08:38:46;15.23;;;9.07;;
39016;SDS011;24784;45.582;5.276;2023-11-19T08:41:13;11.25;;;7.47;;
39016;SDS011;24784;45.582;5.276;2023-11-19T08:43:38;12.23;;;7.22;;
39016;SDS011;24784;45.582;5.276;2023-11-19T08:46:09;9.60;;;6.72;;
39016;SDS011;24784;45.582;5.276;2023-11-19T08:48:35;13.30;;;7.28;;
39016;SDS011;24784;45.582;5.276;2023-11-19T08:51:01;11.45;;;6.97;;
39016;SDS011;24784;45.582;5.276;2023-11-19T08:53:27;10.65;;;6.30;;
39016;SDS011;24784;45.582;5.276;2023-11-19T08:55:52;13.77;;;7.25;;
39016;SDS011;24784;45.582;5.276;2023-11-19T08:58:18;12.40;;;6.72;;
39016;SDS011;24784;45.582;5.276;2023-11-19T09:00:43;8.98;;;6.43;;
39016;SDS011;24784;45.582;5.276;2023-11-19T09:03:09;10.27;;;6.03;;
39016;SDS011;24784;45.582;5.276;2023-11-19T09:05:35;14.48;;;7.22;;
39016;SDS011;24784;45.582;5.276;2023-11-19T09:08:01;12.85;;;8.38;;
39016;SDS011;24784;45.582;5.276;2023-11-19T09:10:27;9.75;;;6.68;;
39016;SDS011;24784;45.582;5.276;2023-11-19T09:12:54;10.70;;;5.70;;
39016;SDS011;24784;45.582;5.276;2023-11-19T09:15:20;10.23;;;4.57;;
39016;SDS011;24784;45.582;5.276;2023-11-19T09:17:45;7.55;;;4.85;;
39016;SDS011;24784;45.582;5.276;2023-11-19T09:20:11;10.48;;;4.63;;
39016;SDS011;24784;45.582;5.276;2023-11-19T09:22:39;9.80;;;6.30;;
39016;SDS011;24784;45.582;5.276;2023-11-19T09:25:05;13.13;;;7.68;;
39016;SDS011;24784;45.582;5.276;2023-11-19T09:27:31;10.95;;;7.13;;
39016;SDS011;24784;45.582;5.276;2023-11-19T09:29:57;10.90;;;6.65;;
39016;SDS011;24784;45.582;5.276;2023-11-19T09:32:24;13.50;;;7.00;;
39016;SDS011;24784;45.582;5.276;2023-11-19T09:34:50;10.48;;;7.53;;
39016;SDS011;24784;45.582;5.276;2023-11-19T09:37:16;15.00;;;7.43;;
39016;SDS011;24784;45.582;5.276;2023-11-19T09:39:41;12.32;;;7.20;;
39016;SDS011;24784;45.582;5.276;2023-11-19T09:42:10;11.95;;;6.97;;
39016;SDS011;24784;45.582;5.276;2023-11-19T09:44:37;10.93;;;7.40;;
39016;SDS011;24784;45.582;5.276;2023-11-19T09:47:04;12.98;;;7.97;;
39016;SDS011;24784;45.582;5.276;2023-11-19T09:49:31;11.70;;;7.38;;
39016;SDS011;24784;45.582;5.276;2023-11-19T09:51:57;13.57;;;7.22;;
39016;SDS011;24784;45.582;5.276;2023-11-19T09:54:23;15.90;;;8.27;;
39016;SDS011;24784;45.582;5.276;2023-11-19T09:56:49;12.25;;;7.25;;
39016;SDS011;24784;45.582;5.276;2023-11-19T09:59:15;13.55;;;7.28;;
39016;SDS011;24784;45.582;5.276;2023-11-19T10:01:42;12.00;;;6.88;;
39016;SDS011;24784;45.582;5.276;2023-11-19T10:04:09;13.13;;;8.20;;
39016;SDS011;24784;45.582;5.276;2023-11-19T10:06:40;14.07;;;8.90;;
39016;SDS011;24784;45.582;5.276;2023-11-19T10:09:07;18.65;;;8.23;;
39016;SDS011;24784;45.582;5.276;2023-11-19T10:11:32;12.98;;;7.70;;
39016;SDS011;24784;45.582;5.276;2023-11-19T10:13:58;14.57;;;7.68;;
39016;SDS011;24784;45.582;5.276;2023-11-19T10:16:28;16.90;;;7.32;;
39016;SDS011;24784;45.582;5.276;2023-11-19T10:18:57;14.32;;;7.68;;
39016;SDS011;24784;45.582;5.276;2023-11-19T10:21:23;14.55;;;7.82;;
39016;SDS011;24784;45.582;5.276;2023-11-19T10:23:53;11.73;;;8.07;;
39016;SDS011;24784;45.582;5.276;2023-11-19T10:26:21;11.93;;;7.35;;
39016;SDS011;24784;45.582;5.276;2023-11-19T10:28:47;12.95;;;7.70;;
39016;SDS011;24784;45.582;5.276;2023-11-19T10:31:13;14.65;;;7.70;;
39016;SDS011;24784;45.582;5.276;2023-11-19T10:33:39;13.05;;;7.43;;
39016;SDS011;24784;45.582;5.276;2023-11-19T10:36:05;11.45;;;7.30;;
39016;SDS011;24784;45.582;5.276;2023-11-19T10:38:31;11.75;;;7.25;;
39016;SDS011;24784;45.582;5.276;2023-11-19T10:40:57;10.77;;;7.57;;
39016;SDS011;24784;45.582;5.276;2023-11-19T10:43:24;12.18;;;7.43;;
39016;SDS011;24784;45.582;5.276;2023-11-19T10:45:50;14.10;;;7.82;;
39016;SDS011;24784;45.582;5.276;2023-11-19T10:48:15;15.27;;;8.45;;
39016;SDS011;24784;45.582;5.276;2023-11-19T10:50:42;13.93;;;7.40;;
39016;SDS011;24784;45.582;5.276;2023-11-19T10:53:09;11.45;;;7.43;;
39016;SDS011;24784;45.582;5.276;2023-11-19T10:55:40;13.68;;;8.15;;
39016;SDS011;24784;45.582;5.276;2023-11-19T10:58:09;12.70;;;7.93;;
39016;SDS011;24784;45.582;5.276;2023-11-19T11:03:17;13.00;;;7.97;;
39016;SDS011;24784;45.582;5.276;2023-11-19T11:05:42;13.38;;;8.32;;
39016;SDS011;24784;45.582;5.276;2023-11-19T11:08:09;12.13;;;7.57;;
39016;SDS011;24784;45.582;5.276;2023-11-19T11:10:39;10.38;;;6.90;;
39016;SDS011;24784;45.582;5.276;2023-11-19T11:13:08;13.65;;;8.13;;
39016;SDS011;24784;45.582;5.276;2023-11-19T11:15:34;15.85;;;8.13;;
39016;SDS011;24784;45.582;5.276;2023-11-19T11:18:01;11.40;;;7.07;;
39016;SDS011;24784;45.582;5.276;2023-11-19T11:20:30;10.60;;;6.88;;
39016;SDS011;24784;45.582;5.276;2023-11-19T11:23:13;9.88;;;6.68;;
39016;SDS011;24784;45.582;5.276;2023-11-19T11:26:05;14.57;;;7.38;;
39016;SDS011;24784;45.582;5.276;2023-11-19T11:29:03;12.50;;;6.40;;
39016;SDS011;24784;45.582;5.276;2023-11-19T11:37:10;8.55;;;5.90;;
39016;SDS011;24784;45.582;5.276;2023-11-19T11:39:53;10.48;;;6.50;;
39016;SDS011;24784;45.582;5.276;2023-11-19T11:45:02;9.90;;;6.57;;
39016;SDS011;24784;45.582;5.276;2023-11-19T11:50:08;13.15;;;6.65;;
39016;SDS011;24784;45.582;5.276;2023-11-19T11:55:36;10.52;;;7.03;;
39016;SDS011;24784;45.582;5.276;2023-11-19T11:58:20;15.23;;;7.63;;
39016;SDS011;24784;45.582;5.276;2023-11-19T12:00:49;13.40;;;8.27;;
39016;SDS011;24784;45.582;5.276;2023-11-19T12:03:18;11.65;;;7.97;;
39016;SDS011;24784;45.582;5.276;2023-11-19T12:05:47;13.02;;;7.90;;
39016;SDS011;24784;45.582;5.276;2023-11-19T12:08:13;14.68;;;7.97;;
39016;SDS011;24784;45.582;5.276;2023-11-19T12:10:46;11.65;;;7.32;;
39016;SDS011;24784;45.582;5.276;2023-11-19T12:13:17;12.18;;;8.05;;
39016;SDS011;24784;45.582;5.276;2023-11-19T12:18:28;11.93;;;8.18;;
39016;SDS011;24784;45.582;5.276;2023-11-19T12:20:54;12.38;;;7.55;;
39016;SDS011;24784;45.582;5.276;2023-11-19T12:23:21;15.48;;;8.50;;
39016;SDS011;24784;45.582;5.276;2023-11-19T12:25:47;12.63;;;7.68;;
39016;SDS011;24784;45.582;5.276;2023-11-19T12:28:16;11.07;;;7.20;;
39016;SDS011;24784;45.582;5.276;2023-11-19T12:30:42;12.38;;;7.88;;
39016;SDS011;24784;45.582;5.276;2023-11-19T12:33:09;11.00;;;7.13;;
39016;SDS011;24784;45.582;5.276;2023-11-19T12:35:42;15.93;;;7.78;;
39016;SDS011;24784;45.582;5.276;2023-11-19T12:38:25;19.37;;;7.43;;
39016;SDS011;24784;45.582;5.276;2023-11-19T12:43:33;12.82;;;7.60;;
39016;SDS011;24784;45.582;5.276;2023-11-19T12:45:59;9.68;;;6.65;;
39016;SDS011;24784;45.582;5.276;2023-11-19T12:48:25;13.68;;;7.60;;
39016;SDS011;24784;45.582;5.276;2023-11-19T12:53:22;14.65;;;7.70;;
39016;SDS011;24784;45.582;5.276;2023-11-19T12:55:53;14.57;;;8.95;;
39016;SDS011;24784;45.582;5.276;2023-11-19T12:58:33;14.05;;;7.05;;
39016;SDS011;24784;45.582;5.276;2023-11-19T13:01:06;12.23;;;6.73;;
39016;SDS011;24784;45.582;5.276;2023-11-19T13:03:33;10.65;;;6.90;;
39016;SDS011;24784;45.582;5.276;2023-11-19T13:06:04;12.90;;;7.85;;
39016;SDS011;24784;45.582;5.276;2023-11-19T13:08:40;11.13;;;7.22;;
39016;SDS011;24784;45.582;5.276;2023-11-19T13:11:08;12.10;;;6.85;;
39016;SDS011;24784;45.582;5.276;2023-11-19T13:16:19;11.48;;;6.63;;
39016;SDS011;24784;45.582;5.276;2023-11-19T13:18:45;16.08;;;7.40;;
39016;SDS011;24784;45.582;5.276;2023-11-19T13:21:10;13.27;;;7.32;;
39016;SDS011;24784;45.582;5.276;2023-11-19T13:23:36;15.63;;;6.93;;
39016;SDS011;24784;45.582;5.276;2023-11-19T13:26:02;12.50;;;7.22;;
39016;SDS011;24784;45.582;5.276;2023-11-19T13:28:28;12.10;;;6.97;;
39016;SDS011;24784;45.582;5.276;2023-11-19T13:30:54;11.27;;;6.82;;
39016;SDS011;24784;45.582;5.276;2023-11-19T13:33:20;37.60;;;8.60;;
39016;SDS011;24784;45.582;5.276;2023-11-19T13:35:45;15.43;;;7.35;;
39016;SDS011;24784;45.582;5.276;2023-11-19T13:38:11;29.08;;;7.30;;
39016;SDS011;24784;45.582;5.276;2023-11-19T13:40:36;20.15;;;8.25;;
39016;SDS011;24784;45.582;5.276;2023-11-19T13:43:04;11.23;;;6.97;;
39016;SDS011;24784;45.582;5.276;2023-11-19T13:45:29;15.82;;;7.13;;
39016;SDS011;24784;45.582;5.276;2023-11-19T13:47:55;9.93;;;7.03;;
39016;SDS011;24784;45.582;5.276;2023-11-19T13:50:21;27.58;;;7.57;;
39016;SDS011;24784;45.582;5.276;2023-11-19T13:52:47;16.23;;;7.10;;
39016;SDS011;24784;45.582;5.276;2023-11-19T13:55:13;18.90;;;7.50;;
39016;SDS011;24784;45.582;5.276;2023-11-19T13:57:39;12.85;;;7.07;;
39016;SDS011;24784;45.582;5.276;2023-11-19T14:00:07;18.85;;;7.50;;
39016;SDS011;24784;45.582;5.276;2023-11-19T14:02:44;13.45;;;6.95;;
39016;SDS011;24784;45.582;5.276;2023-11-19T14:05:13;13.15;;;7.53;;
39016;SDS011;24784;45.582;5.276;2023-11-19T14:07:40;16.08;;;8.23;;
39016;SDS011;24784;45.582;5.276;2023-11-19T14:10:06;13.90;;;7.60;;
39016;SDS011;24784;45.582;5.276;2023-11-19T14:12:34;14.57;;;8.05;;
39016;SDS011;24784;45.582;5.276;2023-11-19T14:15:01;12.27;;;7.22;;
39016;SDS011;24784;45.582;5.276;2023-11-19T14:17:26;12.75;;;7.63;;
39016;SDS011;24784;45.582;5.276;2023-11-19T14:19:52;13.95;;;7.82;;
39016;SDS011;24784;45.582;5.276;2023-11-19T14:22:18;15.77;;;8.55;;
39016;SDS011;24784;45.582;5.276;2023-11-19T14:24:43;18.23;;;9.25;;
39016;SDS011;24784;45.582;5.276;2023-11-19T14:27:09;16.65;;;9.55;;
39016;SDS011;24784;45.582;5.276;2023-11-19T14:29:35;15.82;;;9.45;;
39016;SDS011;24784;45.582;5.276;2023-11-19T14:32:02;17.92;;;10.10;;
39016;SDS011;24784;45.582;5.276;2023-11-19T14:34:29;15.82;;;10.77;;
39016;SDS011;24784;45.582;5.276;2023-11-19T14:36:55;19.13;;;10.23;;
39016;SDS011;24784;45.582;5.276;2023-11-19T14:39:21;16.58;;;9.93;;
39016;SDS011;24784;45.582;5.276;2023-11-19T14:41:47;15.73;;;9.23;;
39016;SDS011;24784;45.582;5.276;2023-11-19T14:44:12;15.52;;;9.35;;
39016;SDS011;24784;45.582;5.276;2023-11-19T14:46:38;17.88;;;9.38;;
39016;SDS011;24784;45.582;5.276;2023-11-19T14:49:04;17.30;;;9.80;;
39016;SDS011;24784;45.582;5.276;2023-11-19T14:51:29;21.00;;;9.77;;
39016;SDS011;24784;45.582;5.276;2023-11-19T14:53:56;13.45;;;8.40;;
39016;SDS011;24784;45.582;5.276;2023-11-19T14:56:21;17.90;;;9.18;;
39016;SDS011;24784;45.582;5.276;2023-11-19T14:58:47;16.38;;;8.32;;
39016;SDS011;24784;45.582;5.276;2023-11-19T15:01:15;17.83;;;8.93;;